.
WxDataArchive / Data Records for 2013-06-01
2013-05-31 June 2013 2013-06-02

Data Records for Saturday, 01 June 2013

Time	Temp	Chill	HIndex	Humid	Dewpt	 Wind 	HiWind	WindDir	Rain 	Barom 
-----	----	-----	------	-----	-----	------	------	-------	-----	----- 
00:00	62.9	62.9	62.9	94	61.1	0	1	112	0.09	29.907 
00:05	63.1	63.1	63.1	94	61.3	0	1	112	0.06	29.907 
00:10	63.1	63.1	63.1	95	61.6	0	1	112	0.03	29.907 
00:15	63.1	63.1	63.1	95	61.6	0	0	---	0.08	29.893 
00:20	63.1	63.1	63.1	95	61.6	0	1	112	0.13	29.893 
00:25	63.1	63.1	63.1	95	61.6	0	2	112	0.10	29.893 
00:30	63.1	63.1	63.1	95	61.6	0	1	112	0.11	29.896 
00:35	63.1	63.1	63.1	95	61.6	0	1	112	0.08	29.896 
00:40	63.2	63.2	63.2	95	61.7	1	3	112	0.10	29.896 
00:45	63.2	63.2	63.2	95	61.7	0	2	112	0.04	29.905 
00:50	63.4	63.4	63.4	96	62.2	2	4	315	0.20	29.905 
00:55	63.5	63.5	63.5	96	62.3	1	3	315	0.21	29.905 
01:00	63.9	63.9	63.9	96	62.7	0	2	315	0.13	29.883 
01:05	63.9	63.9	63.9	96	62.7	0	3	315	0.09	29.883 
01:10	64.0	64.0	64.0	96	62.8	0	5	112	0.09	29.883 
01:15	64.2	64.2	64.2	96	63.0	0	2	112	0.08	29.879 
01:20	64.2	64.2	64.2	96	63.0	0	4	112	0.13	29.879 
01:25	64.2	64.2	64.2	96	63.0	0	2	315	0.12	29.879 
01:30	64.2	64.2	64.2	96	63.0	0	1	315	0.05	29.859 
01:35	64.2	64.2	64.2	96	63.0	0	2	315	0.03	29.859 
01:40	64.2	64.2	64.2	96	63.0	1	3	315	0.04	29.859 
01:45	64.0	64.0	64.0	96	62.8	1	3	45	0.04	29.833 
01:50	64.0	64.0	64.0	96	62.8	1	2	68	0.01	29.833 
01:55	63.9	63.9	63.9	96	62.7	1	3	135	0.00	29.833 
02:00	63.9	63.9	63.9	96	62.7	0	3	135	0.01	29.836 
02:05	63.9	63.9	63.9	96	62.7	1	3	135	0.01	29.836 
02:10	63.9	63.9	63.9	96	62.7	2	3	135	0.03	29.836 
02:15	63.9	63.9	63.9	96	62.7	0	3	135	0.00	29.825 
02:20	63.9	63.9	63.9	96	62.7	1	4	135	0.00	29.825 
02:25	63.9	63.9	63.9	96	62.7	1	4	135	0.00	29.825 
02:30	63.9	63.9	63.9	96	62.7	1	5	90	0.00	29.819 
02:35	63.9	63.9	63.9	96	62.7	0	2	90	0.00	29.819 
02:40	63.9	63.9	63.9	96	62.7	1	5	90	0.01	29.819 
02:45	63.9	63.9	63.9	96	62.7	3	5	90	0.00	29.815 
02:50	63.9	63.9	63.9	96	62.7	0	2	90	0.00	29.815 
02:55	63.9	63.9	63.9	96	62.7	1	2	90	0.00	29.815 
03:00	64.0	64.0	64.0	96	62.8	1	4	90	0.00	29.810 
03:05	64.2	64.2	64.2	96	63.0	1	3	90	0.00	29.810 
03:10	64.3	64.3	64.3	96	63.1	0	2	90	0.03	29.810 
03:15	64.7	64.7	64.7	97	63.8	1	4	248	0.03	29.829 
03:20	65.0	65.0	65.0	97	64.1	1	4	270	0.05	29.829 
03:25	65.2	65.2	65.2	97	64.3	0	2	112	0.03	29.829 
03:30	65.2	65.2	65.2	97	64.3	0	1	112	0.03	29.844 
03:35	65.3	65.3	65.3	97	64.4	0	1	112	0.00	29.844 
03:40	65.5	65.5	65.5	97	64.6	0	1	112	0.01	29.844 
03:45	65.6	65.6	65.6	97	64.7	0	1	112	0.00	29.844 
03:50	65.6	65.6	65.6	97	64.7	0	0	---	0.00	29.844 
03:55	65.8	65.8	65.8	97	64.9	0	0	---	0.01	29.844 
04:00	65.8	65.8	65.8	97	64.9	0	0	---	0.00	29.843 
04:05	65.8	65.8	65.8	97	64.9	0	1	112	0.00	29.843 
04:10	65.8	65.8	65.8	97	64.9	0	1	112	0.00	29.843 
04:15	65.8	65.8	65.8	97	64.9	0	1	112	0.01	29.830 
04:20	65.6	65.6	65.6	97	64.7	0	1	112	0.00	29.830 
04:25	65.6	65.6	65.6	97	64.7	0	0	---	0.00	29.830 
04:30	65.5	65.5	65.5	97	64.6	0	0	---	0.01	29.831 
04:35	65.3	65.3	65.3	96	64.1	0	0	---	0.00	29.831 
04:40	65.2	65.2	65.2	96	64.0	0	1	112	0.00	29.831 
04:45	64.8	64.8	64.8	96	63.6	0	1	112	0.00	29.830 
04:50	64.7	64.7	64.7	96	63.5	0	1	112	0.00	29.830 
04:55	64.5	64.5	64.5	96	63.3	0	1	112	0.00	29.830 
05:00	64.3	64.3	64.3	96	63.1	0	0	---	0.00	29.831 
05:05	64.2	64.2	64.2	97	63.3	0	1	112	0.00	29.831 
05:10	64.2	64.2	64.2	97	63.3	0	0	---	0.00	29.831 
05:15	64.2	64.2	64.2	97	63.3	0	0	---	0.00	29.830 
05:20	64.2	64.2	64.2	97	63.3	0	0	---	0.00	29.830 
05:25	64.0	64.0	64.0	97	63.1	0	0	---	0.00	29.830 
05:30	64.0	64.0	64.0	97	63.1	0	1	112	0.01	29.822 
05:35	63.9	63.9	63.9	97	63.0	0	1	112	0.00	29.822 
05:40	63.9	63.9	63.9	97	63.0	0	2	112	0.00	29.822 
05:45	63.7	63.7	63.7	97	62.8	0	1	112	0.00	29.830 
05:50	63.7	63.7	63.7	97	62.8	0	1	112	0.01	29.830 
05:55	63.7	63.7	63.7	97	62.8	0	0	---	0.00	29.830 
06:00	63.7	63.7	63.7	97	62.8	0	0	---	0.00	29.827 
06:05	63.7	63.7	63.7	97	62.8	0	1	112	0.01	29.827 
06:10	63.7	63.7	63.7	97	62.8	0	2	112	0.00	29.827 
06:15	63.7	63.7	63.7	97	62.8	0	2	112	0.00	29.830 
06:20	63.7	63.7	63.7	97	62.8	0	2	112	0.00	29.830 
06:25	63.7	63.7	63.7	97	62.8	0	1	112	0.00	29.830 
06:30	63.7	63.7	63.7	97	62.8	0	2	112	0.00	29.832 
06:35	63.7	63.7	63.7	97	62.8	1	4	68	0.00	29.832 
06:40	63.7	63.7	63.7	97	62.8	0	2	68	0.01	29.832 
06:45	63.7	63.7	63.7	97	62.8	0	3	68	0.00	29.826 
06:50	63.7	63.7	63.7	97	62.8	1	4	68	0.00	29.826 
06:55	63.7	63.7	63.7	97	62.8	0	1	68	0.00	29.826 
07:00	63.9	63.9	63.9	97	63.0	0	1	68	0.00	29.821 
07:05	63.9	63.9	63.9	97	63.0	0	1	68	0.00	29.821 
07:10	63.9	63.9	63.9	97	63.0	0	0	---	0.00	29.821 
07:15	63.9	63.9	63.9	97	63.0	0	0	---	0.00	29.815 
07:20	63.9	63.9	63.9	97	63.0	0	0	---	0.00	29.815 
07:25	63.9	63.9	63.9	97	63.0	0	1	68	0.00	29.815 
07:30	63.9	63.9	63.9	97	63.0	0	1	68	0.01	29.817 
07:35	63.9	63.9	63.9	97	63.0	0	1	68	0.00	29.817 
07:40	63.9	63.9	63.9	97	63.0	1	3	68	0.00	29.817 
07:45	64.0	64.0	64.0	97	63.1	1	3	68	0.00	29.809 
07:50	64.0	64.0	64.0	97	63.1	1	2	68	0.00	29.809 
07:55	64.0	64.0	64.0	97	63.1	1	3	68	0.00	29.809 
08:00	64.2	64.2	64.2	97	63.3	1	4	112	0.00	29.784 
08:05	64.2	64.2	64.2	97	63.3	2	5	112	0.00	29.784 
08:10	64.2	64.2	64.2	97	63.3	2	4	112	0.00	29.784 
08:15	64.2	64.2	64.2	97	63.3	1	3	90	0.00	29.778 
08:20	64.2	64.2	64.2	97	63.3	1	3	90	0.00	29.778 
08:25	64.3	64.3	64.3	97	63.4	1	3	90	0.00	29.778 
08:30	64.3	64.3	64.3	97	63.4	0	2	90	0.00	29.781 
08:35	64.3	64.3	64.3	97	63.4	1	4	90	0.00	29.781 
08:40	64.3	64.3	64.3	97	63.4	1	3	112	0.00	29.781 
08:45	64.3	64.3	64.3	97	63.4	2	5	90	0.00	29.785 
08:50	64.3	64.3	64.3	97	63.4	1	4	90	0.00	29.785 
08:55	64.3	64.3	64.3	97	63.4	1	4	135	0.00	29.785 
09:00	64.5	64.5	64.5	97	63.6	1	5	90	0.00	29.782 
09:05	64.8	64.8	64.8	97	63.9	1	3	112	0.00	29.782 
09:10	65.2	65.2	65.2	97	64.3	1	5	112	0.00	29.782 
09:15	65.2	65.2	65.2	97	64.3	1	6	0	0.00	29.785 
09:20	65.0	65.0	65.0	97	64.1	1	4	90	0.00	29.785 
09:25	65.0	65.0	65.0	97	64.1	1	3	90	0.00	29.785 
09:30	65.2	65.2	65.2	97	64.3	0	3	90	0.00	29.783 
09:35	65.2	65.2	65.2	97	64.3	0	2	90	0.00	29.783 
09:40	65.2	65.2	65.2	97	64.3	0	2	90	0.00	29.783 
09:45	65.3	65.3	65.3	97	64.4	0	0	---	0.00	29.784 
09:50	65.3	65.3	65.3	97	64.4	0	2	0	0.00	29.784 
09:55	65.3	65.3	65.3	97	64.4	0	1	22	0.00	29.784 
10:00	65.3	65.3	65.3	96	64.1	0	4	22	0.00	29.775 
10:05	65.3	65.3	65.3	96	64.1	0	2	112	0.01	29.775 
10:10	65.5	65.5	65.5	96	64.3	0	1	112	0.00	29.775 
10:15	65.8	65.8	65.8	96	64.6	0	1	112	0.00	29.786 
10:20	66.1	66.1	66.1	96	64.9	0	3	112	0.00	29.786 
10:25	66.4	66.4	66.4	96	65.2	0	2	225	0.00	29.786 
10:30	66.8	66.8	66.8	96	65.6	0	0	---	0.00	29.789 
10:35	67.4	67.4	67.4	96	66.2	0	1	225	0.00	29.789 
10:40	67.6	67.6	67.6	96	66.4	0	3	112	0.00	29.789 
10:45	67.4	67.4	67.4	96	66.2	0	2	112	0.00	29.787 
10:50	67.6	67.6	67.6	95	66.1	0	2	112	0.00	29.787 
10:55	67.3	67.3	67.3	95	65.8	1	3	292	0.00	29.787 
11:00	67.6	67.6	67.6	95	66.1	0	3	270	0.00	29.789 
11:05	67.6	67.6	67.6	94	65.8	1	5	248	0.00	29.789 
11:10	67.9	67.9	67.9	94	66.1	0	2	248	0.00	29.789 
11:15	68.4	68.4	68.4	93	66.3	0	2	248	0.00	29.791 
11:20	69.4	69.4	69.4	92	67.0	0	3	180	0.00	29.791 
11:25	69.9	69.9	69.9	90	66.8	1	2	202	0.00	29.791 
11:30	70.9	70.9	70.9	89	67.5	0	3	0	0.00	29.786 
11:35	71.3	71.3	71.3	84	66.2	2	5	292	0.00	29.786 
11:40	71.6	71.6	71.6	81	65.4	1	5	270	0.00	29.786 
11:45	72.1	72.1	72.1	78	64.8	1	5	270	0.00	29.790 
11:50	72.8	72.8	72.8	78	65.5	1	4	292	0.00	29.790 
11:55	73.2	73.2	73.2	73	64.0	2	7	270	0.00	29.790 
12:00	73.3	73.3	73.3	71	63.3	2	6	270	0.00	29.786 
12:05	73.2	73.2	73.2	71	63.2	3	6	248	0.00	29.786 
12:10	72.8	72.8	72.8	71	62.8	2	4	248	0.00	29.786 
12:15	72.5	72.5	72.5	72	62.9	2	5	248	0.00	29.799 
12:20	72.3	72.3	72.3	71	62.4	2	5	292	0.00	29.799 
12:25	72.5	72.5	72.5	71	62.5	2	4	248	0.00	29.799 
12:30	72.5	72.5	72.5	71	62.5	2	7	270	0.00	29.802 
12:35	72.7	72.7	72.7	72	63.1	2	6	270	0.00	29.802 
12:40	72.7	72.7	72.7	71	62.7	2	5	248	0.00	29.802 
12:45	72.7	72.7	72.7	70	62.3	2	5	248	0.00	29.804 
12:50	72.7	72.7	72.7	70	62.3	2	7	270	0.00	29.804 
12:55	72.7	72.7	72.7	72	63.1	1	4	248	0.00	29.804 
13:00	72.8	72.8	72.8	72	63.2	1	7	248	0.00	29.813 
13:05	73.2	73.2	73.2	70	62.8	2	6	270	0.00	29.813 
13:10	73.3	73.3	73.3	70	62.9	2	6	270	0.00	29.813 
13:15	73.5	73.5	73.5	69	62.7	2	5	248	0.00	29.812 
13:20	73.5	73.5	73.5	69	62.7	2	6	248	0.00	29.812 
13:25	73.9	73.9	73.9	66	61.8	3	7	248	0.00	29.812 
13:30	74.0	74.0	74.0	66	61.9	2	4	248	0.00	29.803 
13:35	74.2	74.2	74.2	67	62.5	2	5	248	0.00	29.803 
13:40	74.2	74.2	74.2	67	62.5	2	6	270	0.00	29.803 
13:45	74.0	74.0	74.0	68	62.8	1	3	292	0.00	29.799 
13:50	73.7	73.7	73.7	67	62.0	2	7	248	0.00	29.799 
13:55	73.9	73.9	73.9	68	62.7	1	3	248	0.00	29.799 
14:00	74.2	74.2	74.2	67	62.5	2	5	270	0.00	29.798 
14:05	74.7	74.7	74.7	65	62.1	3	7	292	0.00	29.798 
14:10	74.9	74.9	74.9	64	61.9	3	7	248	0.00	29.798 
14:15	74.7	74.7	74.7	64	61.7	3	6	248	0.00	29.796 
14:20	74.6	74.6	74.6	65	62.0	2	5	270	0.00	29.796 
14:25	74.4	74.4	74.4	66	62.3	2	5	270	0.00	29.796 
14:30	74.2	74.2	74.2	64	61.2	3	6	270	0.00	29.794 
14:35	73.7	73.7	73.7	65	61.2	2	10	270	0.00	29.794 
14:40	73.5	73.5	73.5	65	61.0	1	5	292	0.00	29.794 
14:45	73.5	73.5	73.5	66	61.4	1	4	292	0.00	29.797 
14:50	73.9	73.9	73.9	67	62.2	1	3	248	0.00	29.797 
14:55	73.9	73.9	73.9	64	60.9	2	5	270	0.00	29.797 
15:00	73.7	73.7	73.7	66	61.6	1	5	315	0.00	29.782 
15:05	73.7	73.7	73.7	65	61.2	1	4	315	0.00	29.782 
15:10	73.9	73.9	73.9	65	61.4	1	4	248	0.00	29.782 
15:15	74.0	74.0	74.0	65	61.5	1	4	292	0.00	29.782 
15:20	74.2	74.2	74.2	64	61.2	1	5	270	0.00	29.782 
15:25	74.2	74.2	74.2	64	61.2	2	4	270	0.00	29.782 
15:30	74.2	74.2	74.2	65	61.7	1	4	270	0.00	29.794 
15:35	74.4	74.4	74.4	65	61.8	1	4	270	0.00	29.794 
15:40	74.7	74.7	74.7	65	62.1	1	2	270	0.00	29.794 
15:45	75.1	75.1	77.1	65	62.5	0	2	270	0.00	29.793 
15:50	75.3	75.3	77.4	64	62.3	1	4	270	0.00	29.793 
15:55	75.3	75.3	77.4	64	62.3	1	4	270	0.00	29.793 
16:00	74.9	74.9	74.9	63	61.4	1	2	270	0.00	29.782 
16:05	74.6	74.6	74.6	64	61.6	1	3	270	0.00	29.782 
16:10	74.6	74.6	74.6	63	61.2	0	2	270	0.00	29.782 
16:15	74.4	74.4	74.4	62	60.5	1	3	270	0.00	29.774 
16:20	74.4	74.4	74.4	62	60.5	1	4	270	0.00	29.774 
16:25	74.4	74.4	74.4	63	61.0	1	3	270	0.00	29.774 
16:30	74.2	74.2	74.2	64	61.2	1	2	270	0.00	29.783 
16:35	74.0	74.0	74.0	65	61.5	1	3	270	0.00	29.783 
16:40	73.9	73.9	73.9	66	61.8	1	3	0	0.00	29.783 
16:45	73.9	73.9	73.9	66	61.8	0	2	0	0.00	29.776 
16:50	74.2	74.2	74.2	66	62.1	0	2	0	0.00	29.776 
16:55	74.4	74.4	74.4	66	62.3	0	3	270	0.00	29.776 
17:00	74.6	74.6	74.6	66	62.5	1	3	248	0.00	29.778 
17:05	74.9	74.9	74.9	65	62.3	1	3	248	0.00	29.778 
17:10	74.9	74.9	74.9	65	62.3	0	2	248	0.00	29.778 
17:15	74.9	74.9	74.9	65	62.3	0	2	248	0.00	29.768 
17:20	74.6	74.6	74.6	65	62.0	1	3	248	0.00	29.768 
17:25	74.6	74.6	74.6	66	62.5	1	3	248	0.00	29.768 
17:30	74.4	74.4	74.4	67	62.7	0	1	248	0.00	29.771 
17:35	74.2	74.2	74.2	67	62.5	0	3	248	0.00	29.771 
17:40	74.0	74.0	74.0	67	62.3	1	3	248	0.00	29.771 
17:45	73.7	73.7	73.7	67	62.0	0	2	338	0.00	29.769 
17:50	73.5	73.5	73.5	68	62.3	1	3	338	0.00	29.769 
17:55	73.2	73.2	73.2	69	62.4	0	3	315	0.00	29.769 
18:00	73.0	73.0	73.0	69	62.2	0	2	315	0.00	29.770 
18:05	73.0	73.0	73.0	70	62.6	0	1	315	0.00	29.770 
18:10	73.0	73.0	73.0	70	62.6	0	1	315	0.00	29.770 
18:15	73.2	73.2	73.2	70	62.8	0	1	315	0.00	29.753 
18:20	73.3	73.3	73.3	70	62.9	0	1	315	0.00	29.753 
18:25	73.3	73.3	73.3	69	62.5	0	2	315	0.00	29.753 
18:30	73.3	73.3	73.3	70	62.9	0	1	315	0.00	29.751 
18:35	73.3	73.3	73.3	70	62.9	0	1	315	0.00	29.751 
18:40	73.3	73.3	73.3	70	62.9	0	3	315	0.00	29.751 
18:45	73.3	73.3	73.3	70	62.9	0	1	315	0.00	29.738 
18:50	73.3	73.3	73.3	70	62.9	0	1	315	0.00	29.738 
18:55	73.5	73.5	73.5	70	63.1	0	2	315	0.00	29.738 
19:00	73.7	73.7	73.7	71	63.7	0	2	315	0.00	29.743 
19:05	73.9	73.9	73.9	70	63.5	0	1	315	0.00	29.743 
19:10	73.9	73.9	73.9	70	63.5	0	2	315	0.00	29.743 
19:15	73.7	73.7	73.7	69	62.9	1	3	315	0.00	29.737 
19:20	73.7	73.7	73.7	70	63.3	0	1	68	0.00	29.737 
19:25	73.9	73.9	73.9	70	63.5	0	1	68	0.00	29.737 
19:30	73.9	73.9	73.9	69	63.1	0	2	68	0.00	29.736 
19:35	73.9	73.9	73.9	70	63.5	0	2	68	0.00	29.736 
19:40	73.7	73.7	73.7	70	63.3	0	1	68	0.00	29.736 
19:45	73.5	73.5	73.5	70	63.1	0	2	68	0.00	29.736 
19:50	73.2	73.2	73.2	70	62.8	0	1	68	0.00	29.736 
19:55	73.0	73.0	73.0	72	63.4	0	2	68	0.00	29.736 
20:00	72.8	72.8	72.8	73	63.6	0	1	68	0.00	29.735 
20:05	72.7	72.7	72.7	73	63.5	0	0	---	0.00	29.735 
20:10	72.5	72.5	72.5	74	63.7	0	1	68	0.00	29.735 
20:15	72.3	72.3	72.3	74	63.5	0	1	68	0.00	29.736 
20:20	72.1	72.1	72.1	74	63.3	0	1	68	0.00	29.736 
20:25	72.1	72.1	72.1	75	63.7	0	0	---	0.00	29.736 
20:30	72.1	72.1	72.1	76	64.1	0	0	---	0.00	29.732 
20:35	72.0	72.0	72.0	76	64.0	0	0	---	0.00	29.732 
20:40	72.0	72.0	72.0	76	64.0	0	0	---	0.00	29.732 
20:45	71.8	71.8	71.8	76	63.8	0	0	---	0.00	29.734 
20:50	71.8	71.8	71.8	77	64.2	0	1	68	0.00	29.734 
20:55	71.6	71.6	71.6	77	64.0	0	0	---	0.00	29.734 
21:00	71.6	71.6	71.6	77	64.0	0	0	---	0.00	29.732 
21:05	71.5	71.5	71.5	77	63.9	0	0	---	0.00	29.732 
21:10	71.3	71.3	71.3	77	63.7	0	0	---	0.00	29.732 
21:15	71.3	71.3	71.3	78	64.1	0	0	---	0.00	29.725 
21:20	71.1	71.1	71.1	78	63.9	0	0	---	0.00	29.725 
21:25	70.9	70.9	70.9	78	63.7	0	0	---	0.00	29.725 
21:30	70.8	70.8	70.8	79	64.0	0	0	---	0.00	29.720 
21:35	70.6	70.6	70.6	79	63.8	0	0	---	0.00	29.720 
21:40	70.4	70.4	70.4	81	64.3	0	0	---	0.00	29.720 
21:45	70.3	70.3	70.3	81	64.2	0	0	---	0.00	29.712 
21:50	70.3	70.3	70.3	81	64.2	0	0	---	0.00	29.712 
21:55	69.9	69.9	69.9	82	64.1	0	0	---	0.00	29.712 
22:00	69.9	69.9	69.9	82	64.1	0	0	---	0.00	29.709 
22:05	69.8	69.8	69.8	83	64.4	0	0	---	0.00	29.709 
22:10	69.8	69.8	69.8	83	64.4	0	0	---	0.00	29.709 
22:15	69.6	69.6	69.6	83	64.2	0	0	---	0.00	29.703 
22:20	69.6	69.6	69.6	84	64.5	0	0	---	0.00	29.703 
22:25	69.4	69.4	69.4	84	64.3	0	0	---	0.00	29.703 
22:30	69.4	69.4	69.4	84	64.3	0	1	68	0.00	29.703 
22:35	69.6	69.6	69.6	83	64.2	0	3	315	0.00	29.703 
22:40	69.9	69.9	69.9	82	64.1	0	3	315	0.00	29.703 
22:45	70.3	70.3	70.3	81	64.2	0	2	292	0.00	29.705 
22:50	70.4	70.4	70.4	79	63.6	0	3	292	0.00	29.705 
22:55	70.8	70.8	70.8	78	63.6	0	2	292	0.00	29.705 
23:00	70.8	70.8	70.8	77	63.2	0	3	292	0.00	29.711 
23:05	70.8	70.8	70.8	77	63.2	1	4	270	0.00	29.711 
23:10	70.8	70.8	70.8	76	62.8	1	6	338	0.00	29.711 
23:15	70.8	70.8	70.8	75	62.5	1	6	248	0.00	29.705 
23:20	70.8	70.8	70.8	74	62.1	2	7	270	0.00	29.705 
23:25	70.6	70.6	70.6	75	62.3	1	3	248	0.00	29.705 
23:30	70.4	70.4	70.4	75	62.1	1	4	248	0.00	29.705 
23:35	70.3	70.3	70.3	75	62.0	1	4	270	0.00	29.705 
23:40	70.1	70.1	70.1	75	61.8	1	5	270	0.00	29.705 
23:45	69.9	69.9	69.9	76	62.0	0	3	270	0.00	29.704 
23:50	69.8	69.8	69.8	76	61.9	1	4	248	0.00	29.704 
23:55	69.8	69.8	69.8	76	61.9	1	3	248	0.00	29.704 

CoCoRaHS
IN-AL-39
A2 Web Hosting
Creative Commons License
GoDaddy
search engine by freefind advanced

loaded 2018-11-16 00:12:12 • last modified 2010-11-18 10:43:29
Privacy PolicyDisclaimer
• wx.awcolley.com is powered by PmWiki v.2002016 •
• all content (unless otherwise noted) © 2018 A W Colley